Dai15hakuryomaru — JD2439 — position and weather

sailwx.info

Track history (hours):
 
Tides and Currents Weather Stations Pressure Air Temp Water Temp Dewpoint Dewpoint Depression Visibility Wind Speed Wind Dir Waves Ship Positions

Dai15hakuryomaru

Last reported at 2015-Jan-27 15:19 UTC. Time now 2015-Jan-28 01:24 UTC.
Position N 34°59' E 139°27'.

Length 80 m; draft 5.4 m.

Type: Tanker. MMSI: 431000243.

Date/timePositionNaut miles runAvg speedWind from/ knotsBaromVisibWave heightAir tempDewpointWater temp
2015-Jan-27 15:19N 34°59' E 139°27'912.3
2015-Jan-27 14:33N 35°04' E 139°37'1111.2
2015-Jan-27 13:33N 35°12' E 139°46'1212.2
2015-Jan-27 12:33N 35°24' E 139°43'1412.3
2015-Jan-27 11:26N 35°31' E 139°57'4 0.4
2015-Jan-27 02:23N 35°30' E 140°01'0 0.0
2015-Jan-26 23:12N 35°30' E 140°01'0 0.0
2015-Jan-26 22:30N 35°30' E 140°01'0 0.0
2015-Jan-26 21:25N 35°30' E 140°01'0 0.0
2015-Jan-26 20:16N 35°30' E 140°01'0 0.0
2015-Jan-26 19:20N 35°30' E 140°01'6 0.6
2015-Jan-26 09:32N 35°29' E 139°54'1313.0
2015-Jan-26 08:34N 35°19' E 139°44'1312.8
2015-Jan-26 07:33N 35°07' E 139°46'1413.5
2015-Jan-26 06:31N 34°57' E 139°34'7 0.3
2015-Jan-25 07:23N 34°59' E 139°25'1113.0
2015-Jan-25 06:32N 35°03' E 139°37'1212.3
2015-Jan-25 05:33N 35°13' E 139°46'1212.4
2015-Jan-25 04:33N 35°25' E 139°43'1312.7
2015-Jan-25 03:33N 35°31' E 139°57'3 1.1
2015-Jan-25 00:33N 35°30' E 140°01'0 0.0
2015-Jan-24 21:20N 35°30' E 140°01'6 3.2
2015-Jan-24 19:33N 35°29' E 139°54'1312.9
2015-Jan-24 18:34N 35°19' E 139°44'1312.5
2015-Jan-24 17:33N 35°06' E 139°46'1511.6
2015-Jan-24 16:17N 34°52' E 139°48'1 0.0
2015-Jan-23 07:17N 34°53' E 139°49'810.8
2015-Jan-23 06:33N 34°59' E 139°42'1211.8
2015-Jan-23 05:33N 35°10' E 139°46'1111.3
2015-Jan-23 04:34N 35°21' E 139°42'1010.0
2015-Jan-23 03:32N 35°31' E 139°46'0 0.0
2015-Jan-23 02:33N 35°31' E 139°46'0 0.0
2015-Jan-23 01:33N 35°31' E 139°46'0 0.0
2015-Jan-23 00:33N 35°31' E 139°46'0 0.0
2015-Jan-22 23:34N 35°31' E 139°46'0 0.0
2015-Jan-22 22:34N 35°31' E 139°46'2 2.3
2015-Jan-22 21:33N 35°29' E 139°48'0 0.0
2015-Jan-22 20:33N 35°29' E 139°48'0 0.0
2015-Jan-22 19:33N 35°29' E 139°48'0 0.1
2015-Jan-22 18:33N 35°29' E 139°48'0 0.1
2015-Jan-22 17:33N 35°29' E 139°48'0 0.0
2015-Jan-22 16:33N 35°29' E 139°48'1110.7
2015-Jan-22 15:33N 35°19' E 139°44'1211.5
2015-Jan-22 14:33N 35°07' E 139°45'1212.3
2015-Jan-22 13:33N 34°59' E 139°34'17 0.6
2015-Jan-21 06:21N 34°54' E 139°13'1112.8
2015-Jan-21 05:30N 34°59' E 139°25'1212.8
2015-Jan-21 04:33N 35°04' E 139°38'1212.0
2015-Jan-21 03:33N 35°15' E 139°46'1111.1
2015-Jan-21 02:33N 35°24' E 139°40'0 0.0
2015-Jan-21 01:33N 35°24' E 139°40'0 0.0
2015-Jan-21 00:33N 35°24' E 139°40'0 0.0
2015-Jan-20 23:33N 35°24' E 139°40'2 1.9
2015-Jan-20 22:33N 35°23' E 139°41'0 0.1
2015-Jan-20 21:33N 35°23' E 139°41'0 0.0
2015-Jan-20 20:33N 35°23' E 139°41'0 0.0
2015-Jan-20 19:33N 35°23' E 139°41'0 0.1
2015-Jan-20 18:33N 35°23' E 139°41'0 0.0
2015-Jan-20 17:33N 35°23' E 139°41'0 0.1
2015-Jan-20 16:33N 35°23' E 139°41'0 0.1
2015-Jan-20 15:33N 35°23' E 139°41'0 0.1
2015-Jan-20 14:33N 35°23' E 139°41'1211.8
2015-Jan-20 13:33N 35°12' E 139°47'1211.9
2015-Jan-20 12:33N 35°01' E 139°40'15 0.5
2015-Jan-19 07:18N 34°59' E 139°22'911.6
2015-Jan-19 06:33N 35°03' E 139°31'1111.5
2015-Jan-19 05:33N 35°09' E 139°43'1110.5
2015-Jan-19 04:33N 35°19' E 139°43'6 6.4
2015-Jan-19 03:33N 35°25' E 139°38'0 0.0
2015-Jan-19 02:33N 35°25' E 139°38'0 0.0
2015-Jan-19 01:33N 35°25' E 139°38'0 0.0
2015-Jan-19 00:33N 35°25' E 139°38'0 0.0
2015-Jan-18 23:33N 35°24' E 139°38'3 3.0
2015-Jan-18 22:33N 35°22' E 139°40'0 0.0
2015-Jan-18 21:33N 35°22' E 139°40'0 0.0
2015-Jan-18 20:33N 35°22' E 139°40'4 3.8
2015-Jan-18 19:33N 35°19' E 139°43'1312.6
2015-Jan-18 18:33N 35°07' E 139°45'  
Track history (hours):
 
Tides and Currents Weather Stations Pressure Air Temp Water Temp Dewpoint Dewpoint Depression Visibility Wind Speed Wind Dir Waves Ship Positions

Dai15hakuryomaru

Last reported at 2015-Jan-27 15:19 UTC. Time now 2015-Jan-28 01:24 UTC.
Position N 34°59' E 139°27'.

Length 80 m; draft 5.4 m.

Type: Tanker. MMSI: 431000243.

Date/timePositionNaut miles runAvg speedWind from/ knotsBaromVisibWave heightAir tempDewpointWater temp
2015-Jan-27 15:19N 34°59' E 139°27'912.3
2015-Jan-27 14:33N 35°04' E 139°37'1111.2
2015-Jan-27 13:33N 35°12' E 139°46'1212.2
2015-Jan-27 12:33N 35°24' E 139°43'1412.3
2015-Jan-27 11:26N 35°31' E 139°57'4 0.4
2015-Jan-27 02:23N 35°30' E 140°01'0 0.0
2015-Jan-26 23:12N 35°30' E 140°01'0 0.0
2015-Jan-26 22:30N 35°30' E 140°01'0 0.0
2015-Jan-26 21:25N 35°30' E 140°01'0 0.0
2015-Jan-26 20:16N 35°30' E 140°01'0 0.0
2015-Jan-26 19:20N 35°30' E 140°01'6 0.6
2015-Jan-26 09:32N 35°29' E 139°54'1313.0
2015-Jan-26 08:34N 35°19' E 139°44'1312.8
2015-Jan-26 07:33N 35°07' E 139°46'1413.5
2015-Jan-26 06:31N 34°57' E 139°34'7 0.3
2015-Jan-25 07:23N 34°59' E 139°25'1113.0
2015-Jan-25 06:32N 35°03' E 139°37'1212.3
2015-Jan-25 05:33N 35°13' E 139°46'1212.4
2015-Jan-25 04:33N 35°25' E 139°43'1312.7
2015-Jan-25 03:33N 35°31' E 139°57'3 1.1
2015-Jan-25 00:33N 35°30' E 140°01'0 0.0
2015-Jan-24 21:20N 35°30' E 140°01'6 3.2
2015-Jan-24 19:33N 35°29' E 139°54'1312.9
2015-Jan-24 18:34N 35°19' E 139°44'1312.5
2015-Jan-24 17:33N 35°06' E 139°46'1511.6
2015-Jan-24 16:17N 34°52' E 139°48'1 0.0
2015-Jan-23 07:17N 34°53' E 139°49'810.8
2015-Jan-23 06:33N 34°59' E 139°42'1211.8
2015-Jan-23 05:33N 35°10' E 139°46'1111.3
2015-Jan-23 04:34N 35°21' E 139°42'1010.0
2015-Jan-23 03:32N 35°31' E 139°46'0 0.0
2015-Jan-23 02:33N 35°31' E 139°46'0 0.0
2015-Jan-23 01:33N 35°31' E 139°46'0 0.0
2015-Jan-23 00:33N 35°31' E 139°46'0 0.0
2015-Jan-22 23:34N 35°31' E 139°46'0 0.0
2015-Jan-22 22:34N 35°31' E 139°46'2 2.3
2015-Jan-22 21:33N 35°29' E 139°48'0 0.0
2015-Jan-22 20:33N 35°29' E 139°48'0 0.0
2015-Jan-22 19:33N 35°29' E 139°48'0 0.1
2015-Jan-22 18:33N 35°29' E 139°48'0 0.1
2015-Jan-22 17:33N 35°29' E 139°48'0 0.0
2015-Jan-22 16:33N 35°29' E 139°48'1110.7
2015-Jan-22 15:33N 35°19' E 139°44'1211.5
2015-Jan-22 14:33N 35°07' E 139°45'1212.3
2015-Jan-22 13:33N 34°59' E 139°34'17 0.6
2015-Jan-21 06:21N 34°54' E 139°13'1112.8
2015-Jan-21 05:30N 34°59' E 139°25'1212.8
2015-Jan-21 04:33N 35°04' E 139°38'1212.0
2015-Jan-21 03:33N 35°15' E 139°46'1111.1
2015-Jan-21 02:33N 35°24' E 139°40'0 0.0
2015-Jan-21 01:33N 35°24' E 139°40'0 0.0
2015-Jan-21 00:33N 35°24' E 139°40'0 0.0
2015-Jan-20 23:33N 35°24' E 139°40'2 1.9
2015-Jan-20 22:33N 35°23' E 139°41'0 0.1
2015-Jan-20 21:33N 35°23' E 139°41'0 0.0
2015-Jan-20 20:33N 35°23' E 139°41'0 0.0
2015-Jan-20 19:33N 35°23' E 139°41'0 0.1
2015-Jan-20 18:33N 35°23' E 139°41'0 0.0
2015-Jan-20 17:33N 35°23' E 139°41'0 0.1
2015-Jan-20 16:33N 35°23' E 139°41'0 0.1
2015-Jan-20 15:33N 35°23' E 139°41'0 0.1
2015-Jan-20 14:33N 35°23' E 139°41'1211.8
2015-Jan-20 13:33N 35°12' E 139°47'1211.9
2015-Jan-20 12:33N 35°01' E 139°40'15 0.5
2015-Jan-19 07:18N 34°59' E 139°22'911.6
2015-Jan-19 06:33N 35°03' E 139°31'1111.5
2015-Jan-19 05:33N 35°09' E 139°43'1110.5
2015-Jan-19 04:33N 35°19' E 139°43'6 6.4
2015-Jan-19 03:33N 35°25' E 139°38'0 0.0
2015-Jan-19 02:33N 35°25' E 139°38'0 0.0
2015-Jan-19 01:33N 35°25' E 139°38'0 0.0
2015-Jan-19 00:33N 35°25' E 139°38'0 0.0
2015-Jan-18 23:33N 35°24' E 139°38'3 3.0
2015-Jan-18 22:33N 35°22' E 139°40'0 0.0
2015-Jan-18 21:33N 35°22' E 139°40'0 0.0
2015-Jan-18 20:33N 35°22' E 139°40'4 3.8
2015-Jan-18 19:33N 35°19' E 139°43'1312.6
2015-Jan-18 18:33N 35°07' E 139°45'  

Dump ship's entire track history